logo
App data

Blob From Space

Blob From Space is a 2d side scroller game. Difficulty will change when progressing. Try to survive many challenges with only 3 continues! Let the rage begin!
Store | Hub | SteamDB | Site
Developer: JosPlays Publisher: KISS ltd
Genre: Casual, Indie, Early Access
Languages: English
Tags: Indie (25), Casual (25), Early Access (25), Platformer (10)
Category: Single-player, Steam Achievements, Full controller support, Steam Trading Cards, Steam Workshop, Steam Cloud
Release date: Oct 15, 2014
Price: $5.99
Old userscore: 22% Owners: 50,000 .. 100,000
Followers: 0
Peak concurrent players yesterday: 1
Playtime total: 05:02 (average) 05:22 (median)

Steam Spy is still in beta, so expect major bugs.

Owners data:

Access restricted.

This feature is only available to users with special access rights. Sorry.

If you want to proceed, you need to register or log in first and then back Steam Spy on Patreon. Look for Indie or Pro pledge.

Don't forget to use the same email as on Steam Spy!

Audience in 2 weeks:

Access restricted.

This feature is only available to users with special access rights. Sorry.

If you want to proceed, you need to register or log in first and then back Steam Spy on Patreon. Look for Indie or Pro pledge.

Don't forget to use the same email as on Steam Spy!

Peak daily concurrent players:

CCU data courtesy of SteamDB. Used with permission.

Hourly concurrent players:

Daily Twitch stats:

Hourly Twitch stats:

Followers over time

Access restricted.

This feature is only available to users with special access rights. Sorry.

If you want to proceed, you need to register or log in first and then back Steam Spy on Patreon. Look for Indie or Pro pledge.

Don't forget to use the same email as on Steam Spy!

Views for top 50 videos on YouTube for this game:

Games similar to this one:

# Game Release date
Price
Score rank
(Userscore / Metascore)
Owners
Players
Playtime (Median)
1 Alpha Runner Sep 2, 2015 $0.99N/A (N/A)100,000 .. 200,0000%00:00 (00:00)
2 Pixel Puzzles 2: Birds Feb 20, 2015 $9.99N/A (N/A)200,000 .. 500,0000%00:00 (00:00)
3 Robot vs Birds Zombies Jun 1, 2013 $0.99N/A (N/A)500,000 .. 1,000,0000%00:00 (00:00)
4 Stay Alight Mar 2, 2015 $3.99N/A (N/A)50,000 .. 100,0000%00:00 (00:00)
5 1953: NATO vs Warsaw Pact Dec 4, 2014 $19.99N/A (N/A)0 .. 20,0000%00:00 (00:00)
6 Unium Feb 3, 2015 $1.99N/A (N/A)0 .. 20,0000%00:00 (00:00)
7 Alchemy Mysteries: Prague Legends Dec 22, 2014 $1.99N/A (N/A)100,000 .. 200,0000%00:00 (00:00)
8 Egg Returns Home May 5, 2015 $0.99N/A (N/A)20,000 .. 50,0000%00:00 (00:00)
9 Crab Cakes Rescue Nov 14, 2014 $6.99N/A (N/A)20,000 .. 50,0000%00:00 (00:00)
10 Space Drifters 2D Mar 28, 2016 $0.99N/A (N/A)20,000 .. 50,0000%00:00 (00:00)
11 Way to Go! Jun 8, 2015 $4.99N/A (N/A)0 .. 20,0000%00:00 (00:00)
12 Koala Kids Jun 22, 2015 $1.99N/A (N/A)20,000 .. 50,0000%00:00 (00:00)
13 Marble Duel: Sphere-Matching Tactical Fantasy Nov 12, 2015 $14.99N/A (N/A)50,000 .. 100,0000%00:00 (00:00)
14 Star Chronicles: Delta Quadrant Jul 7, 2015 $0.99N/A (N/A)200,000 .. 500,0000%00:00 (00:00)
15 Pixel Survivors May 5, 2016 $3.99N/A (N/A)50,000 .. 100,0000%00:00 (00:00)
16 Guardians of Victoria Apr 29, 2016 $0.49N/A (N/A)200,000 .. 500,0000%00:00 (00:00)
17 Crash Drive 2 May 28, 2015 $4.99N/A (N/A)100,000 .. 200,0000%00:00 (00:00)
18 Project Starship Apr 5, 2016 $2.99N/A (N/A)20,000 .. 50,0000%00:00 (00:00)
19 White Mirror Jan 26, 2016 $4.99N/A (N/A)200,000 .. 500,0000%00:00 (00:00)
20 Forgotten, Not Lost - A Kinetic Novel Apr 1, 2016 $1.99N/A (N/A)20,000 .. 50,0000%00:00 (00:00)
21 Iron Sea Defenders Sep 9, 2016 $4.99N/A (N/A)20,000 .. 50,0000%00:00 (00:00)
22 Tyler Jan 14, 2016 $2.99N/A (N/A)0 .. 20,0000%00:00 (00:00)
23 Plight of the Zombie Feb 22, 2016 $2.99N/A (N/A)20,000 .. 50,0000%00:00 (00:00)
24 Collisions Jul 28, 2015 $3.99N/A (N/A)20,000 .. 50,0000%00:00 (00:00)
25 Moonlight Feb 5, 2016 $1.99N/A (N/A)0 .. 20,0000%00:00 (00:00)
26 The Deletion Jul 30, 2015 $1.99N/A (N/A)20,000 .. 50,0000%00:00 (00:00)
27 Until I Have You Apr 4, 2016 $13.99N/A (N/A/69%)20,000 .. 50,0000%00:00 (00:00)
28 Ace Of Words May 13, 2016 $4.99N/A (N/A)100,000 .. 200,0000%00:00 (00:00)
29 Caravanserail Mar 10, 2016 $2.99N/A (N/A)0 .. 20,0000%00:00 (00:00)
30 Star Sky Oct 23, 2015 $3.99N/A (N/A)0 .. 20,0000%00:00 (00:00)
31 Mind Games Mar 4, 2016 $2.99N/A (N/A)0 .. 20,0000%00:00 (00:00)
32 The Last NightMary - A Lenda do Cabeça de Cuia Nov 2, 2015 $3.99N/A (N/A)50,000 .. 100,0000%00:00 (00:00)
33 Airstrike HD Mar 23, 2016 $1.99N/A (N/A)100,000 .. 200,0000%00:00 (00:00)
34 Goodnight Butcher Dec 18, 2015 $1.99N/A (N/A)20,000 .. 50,0000%00:00 (00:00)
35 Luke Sidewalker Nov 25, 2016 $0.99N/A (N/A)50,000 .. 100,0000%00:00 (00:00)
36 Space Beret Oct 25, 2016 $0.99N/A (N/A)100,000 .. 200,0000%00:00 (00:00)
37 BalanCity Sep 21, 2016 $7.99N/A (N/A)100,000 .. 200,00020%00:06 (00:02)
38 Neon Prism Nov 18, 2016 $4.99N/A (N/A)20,000 .. 50,0000%00:00 (00:00)
39 Autumn Sep 23, 2014 $2.99N/A (N/A)100,000 .. 200,0000%00:00 (00:00)
40 Attempt[42] Dec 8, 2016 $2.99N/A (N/A)50,000 .. 100,0000%00:00 (00:00)
41 Impossible Quest Jun 3, 2016 $1.99N/A (N/A)20,000 .. 50,0000%00:00 (00:00)
42 Lobotomy Corporation | Monster Management Simulation Apr 9, 2018 $24.99N/A (N/A)200,000 .. 500,00025%16:28 (10:46)
43 Reset 1-1 Aug 30, 2016 $0.49N/A (N/A)50,000 .. 100,0000%00:00 (00:00)
44 Magic Box Jan 19, 2017 $0.99N/A (N/A)100,000 .. 200,0000%00:00 (00:00)
45 Security Hole Sep 28, 2016 $9.99N/A (N/A)0 .. 20,0000%00:00 (00:00)
46 Won't You Be My Laser? Sep 2, 2016 $0.99N/A (N/A)0 .. 20,0000%00:00 (00:00)
47 Crash Wheels Dec 20, 2018 $4.99N/A (N/A)50,000 .. 100,0000%00:00 (00:00)
48 Paranormal State: Poison Spring Apr 9, 2014 $9.99N/A (N/A)50,000 .. 100,0000%00:00 (00:00)
49 Cosmonautica Jul 31, 2015 $9.99N/A (N/A)200,000 .. 500,0000%00:00 (00:00)
50 Robot Rescue Revolution Jul 11, 2014 $4.99N/A (N/A)0 .. 20,0000%00:00 (00:00)
51 Laserlife Sep 22, 2015 $9.99N/A (N/A)20,000 .. 50,0000%00:00 (00:00)
52 Ionball 2: Ionstorm Jun 6, 2014 $4.99N/A (N/A/70%)200,000 .. 500,0000%00:00 (00:00)
53 Mayhem Intergalactic Jul 4, 2007 $9.99N/A (N/A)0 .. 20,0000%00:00 (00:00)
54 Automation - The Car Company Tycoon Game Mar 12, 2015 $29.99N/A (N/A)200,000 .. 500,0000%00:00 (00:00)
55 Governor of Poker 2 - Premium Edition Oct 11, 2010 $14.99N/A (N/A)20,000 .. 50,0000%00:00 (00:00)
56 Cute Things Dying Violently Sep 2, 2015 $2.99N/A (N/A)0 .. 20,0000%00:00 (00:00)
57 Ancients of Ooga May 20, 2011 $9.99N/A (N/A)20,000 .. 50,0000%00:00 (00:00)
58 Metrocide Dec 15, 2014 $12.99N/A (N/A/68%)20,000 .. 50,0000%00:00 (00:00)
59 Divide By Sheep Jul 2, 2015 $4.99N/A (N/A/83%)2,000,000 .. 5,000,0000%00:00 (00:00)
60 Quantum Rush Champions Dec 4, 2014 $9.99N/A (N/A)20,000 .. 50,0000%00:00 (00:00)
61 MXGP - The Official Motocross Videogame Mar 28, 2014 $2.49N/A (N/A)100,000 .. 200,0000%00:00 (00:00)
62 This Starry Midnight We Make Jun 1, 2015 $9.99N/A (N/A)0 .. 20,0000%00:00 (00:00)
63 Particulars Nov 19, 2014 $5.99N/A (N/A/74%)0 .. 20,0000%00:00 (00:00)
64 Meadowland Oct 22, 2014 $3.99N/A (N/A)0 .. 20,0000%00:00 (00:00)

Tags over time:

Access restricted.

This feature is only available to users with special access rights. Sorry.

If you want to proceed, you need to register or log in first and then back Steam Spy on Patreon. Look for Indie or Pro pledge.

Don't forget to use the same email as on Steam Spy!

Owners of this game also own:

Access restricted.

This feature is only available to users with special access rights. Sorry.

If you want to proceed, you need to register or log in first and then back Steam Spy on Patreon. Look for Indie or Pro pledge.

Don't forget to use the same email as on Steam Spy!

Playtime distribution:

Access restricted.

This feature is only available to users with special access rights. Sorry.

If you want to proceed, you need to register or log in first and then back Steam Spy on Patreon. Look for Indie or Pro pledge.

Don't forget to use the same email as on Steam Spy!

Playtime (2 weeks):

Access restricted.

This feature is only available to users with special access rights. Sorry.

If you want to proceed, you need to register or log in first and then back Steam Spy on Patreon. Look for Indie or Pro pledge.

Don't forget to use the same email as on Steam Spy!

User reviews:

Login required.

Please register or log in to see this information.